Terminal Aerodrome Forecast
Issued by NWS

Home | Current Version | Previous Version | Text Only | Print | Product List | Glossary Off
Versions: 1 2 3 4 5 6 7 8 9 10 11 12 13 14 15 16 17 18

000
FTUS43 KABR 130900 AAA
TAFPIR
TAF AMD
KPIR 130900Z 1309/1406 35020G30KT P6SM VCSH OVC020
     FM131700 35026G36KT P6SM SCT025 BKN040
     FM140300 35012KT P6SM SCT250=

USA.gov is the U.S. government's official web portal to all federal, state and local government web resources and services.